createdAt,value
2019-03-15T00:01:48.390Z,32.33
2019-03-15T00:04:19.756Z,33.70
2019-03-15T00:06:50.969Z,31.40
2019-03-15T00:09:24.647Z,37.00
2019-03-15T00:11:55.907Z,30.57
2019-03-15T00:14:27.299Z,44.60
2019-03-15T00:16:58.595Z,109.40
2019-03-15T00:19:29.913Z,45.30
2019-03-15T00:22:01.120Z,67.23
2019-03-15T00:24:32.345Z,39.73
2019-03-15T00:27:03.652Z,51.00
2019-03-15T00:29:34.753Z,84.97
2019-03-15T00:32:05.986Z,54.40
2019-03-15T00:34:38.247Z,57.77
2019-03-15T00:37:10.720Z,43.77
2019-03-15T00:39:41.987Z,44.33
2019-03-15T00:42:13.125Z,45.47
2019-03-15T00:44:44.419Z,45.20
2019-03-15T00:47:15.809Z,40.43
2019-03-15T00:49:47.153Z,38.83
2019-03-15T00:52:18.622Z,40.27
2019-03-15T00:54:49.882Z,33.83
2019-03-15T00:57:21.132Z,31.70
2019-03-15T00:59:52.432Z,41.80
2019-03-15T01:02:23.620Z,37.77
2019-03-15T01:04:55.070Z,32.53
2019-03-15T01:07:26.323Z,32.80
2019-03-15T01:09:57.607Z,30.57
2019-03-15T01:12:28.836Z,32.67
2019-03-15T01:15:00.039Z,29.67
2019-03-15T01:17:31.415Z,28.53
2019-03-15T01:20:02.900Z,30.03
2019-03-15T01:22:34.410Z,31.17
2019-03-15T01:25:07.845Z,35.70
2019-03-15T01:27:39.226Z,33.23
2019-03-15T01:30:12.299Z,29.97
2019-03-15T01:32:43.517Z,33.77
2019-03-15T01:35:14.831Z,31.27
2019-03-15T01:37:47.680Z,34.80
2019-03-15T01:40:19.026Z,33.70
2019-03-15T01:42:50.242Z,37.43
2019-03-15T01:45:21.627Z,34.07
2019-03-15T01:47:53.388Z,36.60
2019-03-15T01:50:24.666Z,37.70
2019-03-15T01:52:55.913Z,40.20
2019-03-15T01:55:27.222Z,36.17
2019-03-15T01:57:58.468Z,37.80
2019-03-15T02:00:29.721Z,39.57
2019-03-15T02:03:02.483Z,39.53
2019-03-15T02:05:33.977Z,39.30
2019-03-15T02:08:05.106Z,38.10
2019-03-15T02:10:37.489Z,37.73
2019-03-15T02:13:08.930Z,36.20
2019-03-15T02:15:40.091Z,35.63
2019-03-15T02:18:11.230Z,36.53
2019-03-15T02:20:42.477Z,36.83
2019-03-15T02:23:13.717Z,31.70
2019-03-15T02:25:45.107Z,38.87
2019-03-15T02:28:16.380Z,36.27
2019-03-15T02:30:47.628Z,36.83
2019-03-15T02:33:18.750Z,36.50
2019-03-15T02:35:50.023Z,39.80
2019-03-15T02:38:21.316Z,38.10
2019-03-15T02:40:52.570Z,32.83
2019-03-15T02:43:23.911Z,37.33
2019-03-15T02:45:55.208Z,35.93
2019-03-15T02:48:26.473Z,38.30
2019-03-15T02:50:57.676Z,35.50
2019-03-15T02:53:28.939Z,32.53
2019-03-15T02:56:00.145Z,30.93
2019-03-15T02:58:31.459Z,33.10
2019-03-15T03:01:02.677Z,31.87
2019-03-15T03:03:34.035Z,30.93
2019-03-15T03:06:05.562Z,32.20
2019-03-15T03:08:37.895Z,30.83
2019-03-15T03:11:09.088Z,39.87
2019-03-15T03:13:40.486Z,36.33
2019-03-15T03:16:12.735Z,31.00
2019-03-15T03:18:44.066Z,31.37
2019-03-15T03:21:15.542Z,31.67
2019-03-15T03:23:46.839Z,29.27
2019-03-15T03:26:18.078Z,31.63
2019-03-15T03:28:49.277Z,33.07
2019-03-15T03:31:20.495Z,34.13
2019-03-15T03:33:51.824Z,37.63
2019-03-15T03:36:23.089Z,33.03
2019-03-15T03:38:54.436Z,38.33
2019-03-15T03:41:25.758Z,34.03
2019-03-15T03:43:57.046Z,42.37
2019-03-15T03:46:28.349Z,43.83
2019-03-15T03:48:59.679Z,39.07
2019-03-15T03:51:30.966Z,38.10
2019-03-15T03:54:02.376Z,35.37
2019-03-15T03:56:33.586Z,34.80
2019-03-15T03:59:04.815Z,34.73
2019-03-15T04:01:36.099Z,35.40
2019-03-15T04:04:07.451Z,45.10
2019-03-15T04:06:38.743Z,36.77
2019-03-15T04:09:09.983Z,41.60
2019-03-15T04:11:54.236Z,30.60
2019-03-15T04:14:14.191Z,35.97
2019-03-15T04:16:45.547Z,35.10
2019-03-15T04:19:16.945Z,38.73
2019-03-15T04:21:48.215Z,36.97
2019-03-15T04:24:19.629Z,37.60
2019-03-15T04:26:50.854Z,39.53
2019-03-15T04:29:23.355Z,39.30
2019-03-15T04:31:54.687Z,39.37
2019-03-15T04:34:28.340Z,39.97
2019-03-15T04:36:59.901Z,43.40
2019-03-15T04:39:31.182Z,43.93
2019-03-15T04:42:02.430Z,40.40
2019-03-15T04:44:33.751Z,34.87
2019-03-15T04:47:04.991Z,32.80
2019-03-15T04:49:36.074Z,39.03
2019-03-15T04:52:07.216Z,38.63
2019-03-15T04:54:38.425Z,33.73
2019-03-15T04:57:09.556Z,38.03
2019-03-15T04:59:40.752Z,33.77
2019-03-15T05:02:11.788Z,34.93
2019-03-15T05:04:42.891Z,30.77
2019-03-15T05:07:14.204Z,30.47
2019-03-15T05:09:45.275Z,32.17
2019-03-15T05:12:16.531Z,31.13
2019-03-15T05:14:47.642Z,29.53
2019-03-15T05:17:18.789Z,34.73
2019-03-15T05:19:49.898Z,36.63
2019-03-15T05:22:21.146Z,45.37
2019-03-15T05:24:52.481Z,31.43
2019-03-15T05:27:24.845Z,32.20
2019-03-15T05:29:56.021Z,31.63
2019-03-15T05:32:27.180Z,30.17
2019-03-15T05:34:58.221Z,30.23
2019-03-15T05:37:29.227Z,27.67
2019-03-15T05:40:00.460Z,28.27
2019-03-15T05:42:31.651Z,35.83
2019-03-15T05:45:02.915Z,32.73
2019-03-15T05:47:34.020Z,30.85
2019-03-15T05:50:08.563Z,28.47
2019-03-15T05:52:39.714Z,34.48
2019-03-15T05:55:12.806Z,52.55
2019-03-15T05:57:44.018Z,43.33
2019-03-15T06:00:15.720Z,42.85
2019-03-15T06:02:46.966Z,32.53
2019-03-15T06:05:18.126Z,42.73
2019-03-15T06:07:49.288Z,28.23
2019-03-15T06:10:20.546Z,31.60
2019-03-15T06:12:51.682Z,27.77
2019-03-15T06:15:22.921Z,29.65
2019-03-15T06:17:54.066Z,29.40
2019-03-15T06:20:25.130Z,26.23
2019-03-15T06:22:56.373Z,22.42
2019-03-15T06:25:27.521Z,24.27
2019-03-15T06:27:58.784Z,21.00
2019-03-15T06:30:31.026Z,23.60
2019-03-15T06:33:02.226Z,24.43
2019-03-15T06:35:33.450Z,28.50
2019-03-15T06:38:04.599Z,24.18
2019-03-15T06:40:35.685Z,26.68
2019-03-15T06:43:07.212Z,25.15
2019-03-15T06:45:41.596Z,30.30
2019-03-15T06:48:11.367Z,23.07
2019-03-15T06:50:42.668Z,24.32
2019-03-15T06:53:13.761Z,26.57
2019-03-15T06:55:45.020Z,21.97
2019-03-15T06:58:16.073Z,27.95
2019-03-15T07:00:47.297Z,23.25
2019-03-15T07:03:18.478Z,21.70
2019-03-15T07:05:49.633Z,23.07
2019-03-15T07:08:21.574Z,22.17
2019-03-15T07:10:52.688Z,24.77
2019-03-15T07:13:23.862Z,23.95
2019-03-15T07:15:54.999Z,22.35
2019-03-15T07:18:26.236Z,19.87
2019-03-15T07:20:57.428Z,21.17
2019-03-15T07:23:28.689Z,22.90
2019-03-15T07:25:59.856Z,20.62
2019-03-15T07:28:31.146Z,19.75
2019-03-15T07:31:02.484Z,21.65
2019-03-15T07:33:33.731Z,18.98
2019-03-15T07:36:04.877Z,20.57
2019-03-15T07:38:36.020Z,20.55
2019-03-15T07:41:07.348Z,19.82
2019-03-15T07:43:38.525Z,21.48
2019-03-15T07:46:09.679Z,18.98
2019-03-15T07:48:40.916Z,17.57
2019-03-15T07:51:12.312Z,21.00
2019-03-15T07:53:43.608Z,22.15
2019-03-15T07:56:14.764Z,22.58
2019-03-15T07:58:45.982Z,19.55
2019-03-15T08:01:17.105Z,21.45
2019-03-15T08:03:48.681Z,20.32
2019-03-15T08:06:19.984Z,19.65
2019-03-15T08:08:53.521Z,23.52
2019-03-15T08:11:24.695Z,19.15
2019-03-15T08:13:55.930Z,23.35
2019-03-15T08:16:27.127Z,19.07
2019-03-15T08:18:58.411Z,19.95
2019-03-15T08:21:29.698Z,21.52
2019-03-15T08:24:01.018Z,20.40
2019-03-15T08:26:32.294Z,20.52
2019-03-15T08:29:03.684Z,17.17
2019-03-15T08:31:35.018Z,18.40
2019-03-15T08:34:06.311Z,19.40
2019-03-15T08:36:37.603Z,18.55
2019-03-15T08:39:10.585Z,17.50
2019-03-15T08:41:41.911Z,19.55
2019-03-15T08:44:13.264Z,20.27
2019-03-15T08:46:44.610Z,19.07
2019-03-15T08:49:16.122Z,16.45
2019-03-15T08:51:47.416Z,17.70
2019-03-15T08:54:19.824Z,19.05
2019-03-15T08:56:51.016Z,21.20
2019-03-15T08:59:22.275Z,19.40
2019-03-15T09:01:53.745Z,17.15
2019-03-15T09:04:25.087Z,19.55
2019-03-15T09:06:56.458Z,18.85
2019-03-15T09:09:27.686Z,17.62
2019-03-15T09:11:59.075Z,18.95
2019-03-15T09:14:30.942Z,18.98
2019-03-15T09:17:02.246Z,20.25
2019-03-15T09:19:33.470Z,20.82
2019-03-15T09:22:04.816Z,21.17
2019-03-15T09:24:36.121Z,21.25
2019-03-15T09:27:10.397Z,17.20
2019-03-15T09:29:40.276Z,21.20
2019-03-15T09:32:11.958Z,20.55
2019-03-15T09:34:43.193Z,22.32
2019-03-15T09:37:14.422Z,22.07
2019-03-15T09:39:45.571Z,21.57
2019-03-15T09:42:16.975Z,23.05
2019-03-15T09:44:48.265Z,23.62
2019-03-15T09:47:19.562Z,22.87
2019-03-15T09:49:50.763Z,20.50
2019-03-15T09:52:22.022Z,26.00
2019-03-15T09:54:53.526Z,20.48
2019-03-15T09:57:24.859Z,22.70
2019-03-15T09:59:56.061Z,18.65
2019-03-15T10:02:30.573Z,22.20
2019-03-15T10:05:10.066Z,21.10
2019-03-15T10:07:38.756Z,21.48
2019-03-15T10:10:13.770Z,21.73
2019-03-15T10:12:43.781Z,21.05
2019-03-15T10:15:15.780Z,24.23
2019-03-15T10:17:47.159Z,22.35
2019-03-15T10:20:18.288Z,26.77
2019-03-15T10:23:04.633Z,25.48
2019-03-15T10:25:22.495Z,26.70
2019-03-15T10:27:54.673Z,20.77
2019-03-15T10:30:26.959Z,24.87
2019-03-15T10:32:58.157Z,24.55
2019-03-15T10:35:29.213Z,24.65
2019-03-15T19:35:30.471Z,117.93
2019-03-15T19:38:01.922Z,152.65
2019-03-15T19:40:33.647Z,117.13
2019-03-15T19:43:06.419Z,89.83
2019-03-15T19:45:37.697Z,101.10
2019-03-15T19:48:09.395Z,97.30
2019-03-15T19:50:42.097Z,124.35
2019-03-15T19:53:13.241Z,101.72
2019-03-15T19:55:44.579Z,111.70
2019-03-15T19:58:15.802Z,87.85
2019-03-15T20:00:48.645Z,113.10
2019-03-15T20:03:19.745Z,101.22
2019-03-15T20:05:50.992Z,100.42
2019-03-15T20:08:22.362Z,124.22
2019-03-15T20:10:53.841Z,157.78
2019-03-15T20:13:25.216Z,112.03
2019-03-15T20:15:56.629Z,126.58
2019-03-15T20:18:28.957Z,99.00
2019-03-15T20:21:00.596Z,95.62
2019-03-15T20:23:33.001Z,103.75
2019-03-15T20:26:06.236Z,107.22
2019-03-15T20:28:39.426Z,118.10
2019-03-15T20:31:11.970Z,101.05
2019-03-15T20:33:43.400Z,94.17
2019-03-15T20:36:14.573Z,94.83
2019-03-15T20:38:45.787Z,95.77
2019-03-15T20:41:19.592Z,92.67
2019-03-15T20:43:49.852Z,99.90
2019-03-15T20:46:34.847Z,102.53
2019-03-15T20:48:54.064Z,92.12
2019-03-15T20:51:25.239Z,96.90
2019-03-15T20:53:56.483Z,102.47
2019-03-15T20:56:27.698Z,99.03
2019-03-15T20:58:58.875Z,97.23
2019-03-15T21:01:29.959Z,91.70
2019-03-15T21:04:01.189Z,94.13
2019-03-15T21:06:32.294Z,93.83
2019-03-15T21:09:04.352Z,91.75
2019-03-15T21:11:35.512Z,94.30
2019-03-15T21:14:06.596Z,95.32
2019-03-15T21:16:37.799Z,93.93
2019-03-15T21:19:09.185Z,96.07
2019-03-15T21:21:40.458Z,95.22
2019-03-15T21:24:13.975Z,91.32
2019-03-15T21:26:45.156Z,102.10
2019-03-15T21:29:16.284Z,97.23
2019-03-15T21:31:47.670Z,98.20
2019-03-15T21:34:19.755Z,99.40
2019-03-15T21:36:50.907Z,102.25
2019-03-15T21:39:23.552Z,106.33
2019-03-15T21:41:54.732Z,100.53
2019-03-15T21:44:25.956Z,103.60
2019-03-15T21:46:57.200Z,101.07
2019-03-15T21:49:28.514Z,107.97
2019-03-15T21:51:59.750Z,108.73
2019-03-15T21:54:31.009Z,99.90
2019-03-15T21:57:02.306Z,109.63
2019-03-15T21:59:33.578Z,102.57
2019-03-15T22:02:04.854Z,120.37
2019-03-15T22:04:36.175Z,112.97
2019-03-15T22:07:07.519Z,128.60
2019-03-15T22:09:38.773Z,112.00
2019-03-15T22:12:10.066Z,117.70
2019-03-15T22:14:41.396Z,120.53
2019-03-15T22:17:12.611Z,128.23
2019-03-15T22:19:45.268Z,128.50
2019-03-15T22:22:16.604Z,123.53
2019-03-15T22:24:47.855Z,116.10
2019-03-15T22:27:19.191Z,115.07
2019-03-15T22:29:53.799Z,110.10
2019-03-15T22:32:24.410Z,105.67
2019-03-15T22:34:55.613Z,114.93
2019-03-15T22:37:26.884Z,110.90
2019-03-15T22:39:58.278Z,123.47
2019-03-15T22:42:29.618Z,123.47
2019-03-15T22:45:00.822Z,126.60
2019-03-15T22:47:32.199Z,117.87
2019-03-15T22:50:03.503Z,119.73
2019-03-15T22:52:34.900Z,119.90
2019-03-15T22:55:07.971Z,109.93
2019-03-15T22:57:39.252Z,106.97
2019-03-15T23:00:21.554Z,110.73
2019-03-15T23:02:54.416Z,121.97
2019-03-15T23:05:26.352Z,116.33
2019-03-15T23:07:57.544Z,125.57
2019-03-15T23:10:28.932Z,123.40
2019-03-15T23:13:00.125Z,114.77
2019-03-15T23:15:31.834Z,116.37
2019-03-15T23:18:03.121Z,122.23
2019-03-15T23:20:34.371Z,121.73
2019-03-15T23:23:06.536Z,124.87
2019-03-15T23:25:37.910Z,124.10
2019-03-15T23:28:09.266Z,120.70
2019-03-15T23:30:40.545Z,142.83
2019-03-15T23:33:12.020Z,142.87
2019-03-15T23:35:53.447Z,161.60
2019-03-15T23:38:16.327Z,157.47
2019-03-15T23:40:47.697Z,143.13
2019-03-15T23:43:19.007Z,131.03
2019-03-15T23:45:50.167Z,141.73
2019-03-15T23:48:23.029Z,171.03
2019-03-15T23:50:54.142Z,180.27
2019-03-15T23:53:25.431Z,320.17
2019-03-15T23:55:56.709Z,210.27
2019-03-15T23:58:28.190Z,195.37
